createdAt,value
2023-05-09T00:00:56.873Z,91421.66
2023-05-09T00:03:23.212Z,91428.03
2023-05-09T00:05:49.566Z,91411.75
2023-05-09T00:08:15.903Z,91417.66
2023-05-09T00:10:42.854Z,91427.38
2023-05-09T00:13:09.298Z,91414.34
2023-05-09T00:15:35.738Z,91414.44
2023-05-09T00:18:02.130Z,91426.50
2023-05-09T00:20:28.446Z,91413.56
2023-05-09T00:22:55.253Z,91424.44
2023-05-09T00:25:21.564Z,91412.50
2023-05-09T00:27:47.874Z,91410.59
2023-05-09T00:30:14.192Z,91399.97
2023-05-09T00:32:41.385Z,91408.00
2023-05-09T00:35:08.449Z,91399.94
2023-05-09T00:37:34.734Z,91404.97
2023-05-09T00:40:01.074Z,91396.31
2023-05-09T00:42:27.389Z,91398.00
2023-05-09T00:44:53.695Z,91394.22
2023-05-09T00:47:20.675Z,91398.59
2023-05-09T00:49:46.961Z,91403.41
2023-05-09T00:52:13.252Z,91399.06
2023-05-09T00:54:39.633Z,91393.72
2023-05-09T00:57:05.990Z,91401.00
2023-05-09T00:59:32.298Z,91390.88
2023-05-09T01:01:58.613Z,91389.16
2023-05-09T01:04:24.948Z,91384.22
2023-05-09T01:06:57.404Z,91389.41
2023-05-09T01:09:39.125Z,91380.16
2023-05-09T01:12:08.156Z,91390.50
2023-05-09T01:14:44.253Z,91387.69
2023-05-09T01:17:12.168Z,91377.28
2023-05-09T01:19:47.573Z,91382.28
2023-05-09T01:22:14.079Z,91376.00
2023-05-09T01:25:05.108Z,91376.34
2023-05-09T01:27:33.294Z,91374.19
2023-05-09T01:29:59.734Z,91374.00
2023-05-09T01:32:27.137Z,91379.19
2023-05-09T01:34:54.507Z,91372.84
2023-05-09T01:37:22.353Z,91369.38
2023-05-09T01:39:51.678Z,91356.03
2023-05-09T01:42:18.699Z,91355.59
2023-05-09T01:44:44.975Z,91359.31
2023-05-09T01:47:11.250Z,91357.91
2023-05-09T01:49:37.735Z,91351.06
2023-05-09T01:52:04.770Z,91353.59
2023-05-09T01:54:31.080Z,91345.13
2023-05-09T01:56:57.385Z,91355.88
2023-05-09T01:59:23.667Z,91355.81
2023-05-09T02:01:49.960Z,91359.22
2023-05-09T02:04:16.277Z,91360.94
2023-05-09T02:06:43.445Z,91351.81
2023-05-09T02:09:10.039Z,91352.69
2023-05-09T02:11:36.331Z,91354.75
2023-05-09T02:14:02.707Z,91349.44
2023-05-09T02:16:29.964Z,91349.72
2023-05-09T02:18:56.294Z,91346.53
2023-05-09T02:21:22.584Z,91356.81
2023-05-09T02:23:48.861Z,91349.78
2023-05-09T02:26:15.172Z,91350.06
2023-05-09T02:28:41.567Z,91356.00
2023-05-09T02:31:07.847Z,91345.13
2023-05-09T02:33:34.859Z,91358.13
2023-05-09T02:36:01.652Z,91354.34
2023-05-09T02:38:27.937Z,91352.66
2023-05-09T02:40:54.225Z,91344.22
2023-05-09T02:43:20.927Z,91350.47
2023-05-09T02:45:47.296Z,91340.50
2023-05-09T02:48:13.732Z,91336.91
2023-05-09T02:50:42.793Z,91333.38
2023-05-09T02:53:09.603Z,91334.44
2023-05-09T02:55:35.957Z,91336.44
2023-05-09T02:58:12.910Z,91333.63
2023-05-09T03:00:40.839Z,91342.53
2023-05-09T03:03:07.197Z,91331.03
2023-05-09T03:05:33.526Z,91333.59
2023-05-09T03:07:59.812Z,91329.66
2023-05-09T03:10:26.111Z,91328.84
2023-05-09T03:12:52.486Z,91329.16
2023-05-09T03:15:18.809Z,91332.78
2023-05-09T03:17:45.207Z,91327.44
2023-05-09T03:20:11.560Z,91324.22
2023-05-09T03:22:37.859Z,91327.22
2023-05-09T03:25:04.287Z,91334.94
2023-05-09T03:27:30.613Z,91331.72
2023-05-09T03:29:56.954Z,91335.22
2023-05-09T03:32:23.355Z,91341.38
2023-05-09T03:34:49.655Z,91333.63
2023-05-09T03:37:16.012Z,91339.13
2023-05-09T03:39:42.328Z,91334.38
2023-05-09T03:42:08.602Z,91339.69
2023-05-09T03:44:34.890Z,91337.72
2023-05-09T03:47:01.222Z,91338.84
2023-05-09T03:49:27.787Z,91330.31
2023-05-09T03:51:54.127Z,91318.09
2023-05-09T03:54:20.613Z,91322.22
2023-05-09T03:56:46.924Z,91323.63
2023-05-09T03:59:13.363Z,91321.88
2023-05-09T04:01:40.305Z,91318.94
2023-05-09T04:04:06.766Z,91318.53
2023-05-09T04:06:33.498Z,91308.91
2023-05-09T04:08:59.789Z,91306.38
2023-05-09T04:11:26.908Z,91306.38
2023-05-09T04:13:54.050Z,91312.09
2023-05-09T04:16:20.440Z,91313.50
2023-05-09T04:18:46.823Z,91322.47
2023-05-09T04:21:13.109Z,91317.72
2023-05-09T04:23:39.406Z,91309.19
2023-05-09T04:26:06.161Z,91306.63
2023-05-09T04:28:32.504Z,91308.56
2023-05-09T04:30:58.861Z,91312.63
2023-05-09T04:33:25.219Z,91315.44
2023-05-09T04:35:51.736Z,91317.41
2023-05-09T04:38:18.031Z,91318.56
2023-05-09T04:40:44.325Z,91322.94
2023-05-09T04:43:10.622Z,91320.84
2023-05-09T04:45:36.970Z,91315.94
2023-05-09T04:48:03.999Z,91315.66
2023-05-09T04:50:30.403Z,91317.09
2023-05-09T04:52:56.685Z,91308.41
2023-05-09T04:55:23.034Z,91309.28
2023-05-09T04:57:49.336Z,91317.09
2023-05-09T05:00:17.600Z,91317.59
2023-05-09T05:02:43.937Z,91312.78
2023-05-09T05:05:12.448Z,91313.69
2023-05-09T05:07:39.104Z,91304.22
2023-05-09T05:10:06.382Z,91315.97
2023-05-09T05:12:32.658Z,91309.63
2023-05-09T05:14:58.965Z,91328.88
2023-05-09T05:17:25.642Z,91315.72
2023-05-09T05:19:51.955Z,91320.19
2023-05-09T05:22:18.289Z,91317.41
2023-05-09T05:24:44.574Z,91325.25
2023-05-09T05:27:10.887Z,91319.72
2023-05-09T05:29:37.185Z,91320.81
2023-05-09T05:32:03.664Z,91310.59
2023-05-09T05:34:30.002Z,91310.75
2023-05-09T05:36:56.384Z,91314.78
2023-05-09T05:39:22.796Z,91310.66
2023-05-09T05:41:49.088Z,91304.25
2023-05-09T05:44:15.401Z,91303.22
2023-05-09T05:46:41.691Z,91307.72
2023-05-09T05:49:07.987Z,91303.00
2023-05-09T05:51:34.310Z,91300.06
2023-05-09T05:54:00.683Z,91302.66
2023-05-09T05:56:26.997Z,91300.25
2023-05-09T05:58:53.943Z,91294.81
2023-05-09T06:01:20.338Z,91295.63
2023-05-09T06:03:46.786Z,91291.06
2023-05-09T06:06:13.238Z,91292.13
2023-05-09T06:08:39.534Z,91293.53
2023-05-09T06:11:05.924Z,91285.34
2023-05-09T06:13:32.275Z,91284.34
2023-05-09T06:16:07.861Z,91280.13
2023-05-09T06:18:41.855Z,91274.66
2023-05-09T06:21:08.137Z,91285.00
2023-05-09T06:23:37.020Z,91273.38
2023-05-09T06:26:04.315Z,91271.56
2023-05-09T06:28:30.674Z,91273.59
2023-05-09T06:30:57.071Z,91275.59
2023-05-09T06:33:23.427Z,91262.19
2023-05-09T06:35:49.735Z,91270.84
2023-05-09T06:38:16.016Z,91260.31
2023-05-09T06:40:42.409Z,91259.03
2023-05-09T06:43:08.692Z,91248.50
2023-05-09T06:45:35.210Z,91241.19
2023-05-09T06:48:01.693Z,91240.94
2023-05-09T06:50:28.023Z,91248.50
2023-05-09T06:52:54.305Z,91242.16
2023-05-09T06:55:20.628Z,91242.59
2023-05-09T06:57:46.920Z,91237.00
2023-05-09T07:00:13.679Z,91231.56
2023-05-09T07:02:41.983Z,91238.69
2023-05-09T07:05:09.696Z,91233.97
2023-05-09T07:07:36.297Z,91230.97
2023-05-09T07:10:11.202Z,91220.91
2023-05-09T07:12:38.533Z,91214.63
2023-05-09T07:15:06.253Z,91213.41
2023-05-09T07:17:32.556Z,91217.69
2023-05-09T07:19:58.938Z,91216.94
2023-05-09T07:22:25.442Z,91209.47
2023-05-09T07:24:51.841Z,91201.72
2023-05-09T07:27:18.128Z,91197.56
2023-05-09T07:29:44.401Z,91195.81
2023-05-09T07:32:10.996Z,91194.25
2023-05-09T07:34:37.382Z,91194.88
2023-05-09T07:37:03.760Z,91192.75
2023-05-09T07:39:30.258Z,91183.25
2023-05-09T07:41:56.554Z,91186.53
2023-05-09T07:44:23.521Z,91172.59
2023-05-09T07:46:49.876Z,91176.63
2023-05-09T07:49:16.248Z,91171.50
2023-05-09T07:51:42.570Z,91166.41
2023-05-09T07:54:10.047Z,91161.16
2023-05-09T07:56:36.469Z,91161.19
2023-05-09T07:59:03.314Z,91156.56
2023-05-09T08:01:29.622Z,91157.47
2023-05-09T08:03:56.152Z,91155.09
2023-05-09T08:06:22.561Z,91150.69
2023-05-09T08:08:49.243Z,91149.63
2023-05-09T08:11:15.663Z,91138.03
2023-05-09T08:13:41.936Z,91138.50
2023-05-09T08:16:08.347Z,91138.31
2023-05-09T08:18:34.662Z,91137.00
2023-05-09T08:21:01.094Z,91132.22
2023-05-09T08:23:27.899Z,91118.81
2023-05-09T08:25:54.543Z,91115.56
2023-05-09T08:28:21.955Z,91113.50
2023-05-09T08:30:48.304Z,91106.50
2023-05-09T08:33:14.633Z,91112.84
2023-05-09T08:35:40.940Z,91101.63
2023-05-09T08:38:07.293Z,91094.53
2023-05-09T08:40:37.698Z,91098.84
2023-05-09T08:43:07.195Z,91099.31
2023-05-09T08:45:34.830Z,91094.31
2023-05-09T08:48:02.838Z,91092.78
2023-05-09T08:50:29.199Z,91092.47
2023-05-09T08:52:55.507Z,91089.69
2023-05-09T08:55:21.791Z,91080.00
2023-05-09T08:57:48.071Z,91072.03
2023-05-09T09:00:15.876Z,91072.81
2023-05-09T09:02:43.610Z,91073.75
2023-05-09T09:05:19.677Z,91076.31
2023-05-09T09:07:55.251Z,91065.03
2023-05-09T09:10:25.556Z,91062.13
2023-05-09T09:12:52.293Z,91056.97
2023-05-09T09:15:18.575Z,91046.50
2023-05-09T09:17:44.900Z,91052.19
2023-05-09T09:20:12.209Z,91047.19
2023-05-09T09:22:38.586Z,91041.59
2023-05-09T09:25:05.061Z,91039.97
2023-05-09T09:27:31.740Z,91033.53
2023-05-09T09:30:10.991Z,91031.91
2023-05-09T09:32:37.732Z,91028.56
2023-05-09T09:35:07.546Z,91032.34
2023-05-09T09:37:34.717Z,91029.06
2023-05-09T09:40:01.116Z,91024.44
2023-05-09T09:42:27.397Z,91026.88
2023-05-09T09:44:57.215Z,91018.03
2023-05-09T09:47:32.622Z,91013.69
2023-05-09T09:49:58.971Z,91005.28
2023-05-09T09:52:25.244Z,90993.31
2023-05-09T09:54:51.528Z,90991.34
2023-05-09T09:57:33.403Z,90996.00
2023-05-09T09:59:59.689Z,90986.28
2023-05-09T10:02:26.711Z,90984.16
2023-05-09T10:04:53.038Z,90979.22
2023-05-09T10:07:20.587Z,90982.63
2023-05-09T10:09:49.116Z,90969.72
2023-05-09T10:12:19.482Z,90966.38
2023-05-09T10:14:45.780Z,90959.22
2023-05-09T10:17:13.479Z,90951.50
2023-05-09T10:19:41.459Z,90946.34
2023-05-09T10:22:10.905Z,90938.41
2023-05-09T10:24:40.098Z,90934.16
2023-05-09T10:27:06.881Z,90945.16
2023-05-09T10:29:34.651Z,90938.09
2023-05-09T10:32:02.569Z,90935.50
2023-05-09T10:34:29.098Z,90928.72
2023-05-09T10:36:55.566Z,90924.91
2023-05-09T10:39:22.021Z,90920.56
2023-05-09T10:41:49.793Z,90913.50
2023-05-09T10:44:16.539Z,90911.00
2023-05-09T10:46:43.015Z,90908.25
2023-05-09T10:49:09.779Z,90905.28
2023-05-09T10:51:36.158Z,90901.94
2023-05-09T10:54:02.443Z,90890.41
2023-05-09T10:56:34.340Z,90902.41
2023-05-09T10:59:00.760Z,90895.66
2023-05-09T11:01:31.486Z,90886.13
2023-05-09T11:03:58.512Z,90882.59
2023-05-09T11:06:43.892Z,90885.50
2023-05-09T11:09:28.853Z,90878.25
2023-05-09T11:12:07.172Z,90871.75
2023-05-09T11:14:40.745Z,90871.97
2023-05-09T11:17:22.539Z,90863.72
2023-05-09T11:19:51.611Z,90861.75
2023-05-09T11:22:20.859Z,90857.47
2023-05-09T11:24:50.795Z,90856.38
2023-05-09T11:27:20.576Z,90849.53
2023-05-09T11:29:50.950Z,90843.78
2023-05-09T11:32:17.342Z,90840.78
2023-05-09T11:34:44.014Z,90837.84
2023-05-09T11:37:11.109Z,90836.03
2023-05-09T11:39:54.837Z,90835.56
2023-05-09T11:42:21.233Z,90831.28
2023-05-09T11:44:48.793Z,90832.31
2023-05-09T11:47:15.500Z,90823.69
2023-05-09T11:49:44.660Z,90825.81
2023-05-09T11:52:11.146Z,90821.66
2023-05-09T11:54:40.330Z,90811.00
2023-05-09T11:57:06.807Z,90807.72
2023-05-09T11:59:33.461Z,90805.38
2023-05-09T12:02:05.907Z,90802.81
2023-05-09T12:04:32.301Z,90800.91
2023-05-09T12:06:59.291Z,90804.16
2023-05-09T12:09:35.182Z,90795.47
2023-05-09T12:12:01.502Z,90794.66
2023-05-09T12:14:28.545Z,90789.22
2023-05-09T12:16:54.842Z,90791.13
2023-05-09T12:19:21.228Z,90785.34
2023-05-09T12:21:47.511Z,90786.16
2023-05-09T12:24:13.813Z,90787.28
2023-05-09T12:26:40.099Z,90791.25
2023-05-09T12:29:06.392Z,90781.03
2023-05-09T12:31:32.934Z,90770.09
2023-05-09T12:33:59.263Z,90771.56
2023-05-09T12:36:26.280Z,90784.78
2023-05-09T12:38:55.477Z,90777.63
2023-05-09T12:43:56.521Z,90778.16
2023-05-09T12:46:23.112Z,90766.66
2023-05-09T12:48:49.570Z,90771.84
2023-05-09T12:51:20.139Z,90773.81
2023-05-09T12:53:46.473Z,90770.09
2023-05-09T12:56:12.769Z,90770.34
2023-05-09T12:58:39.480Z,90768.31
2023-05-09T13:01:06.029Z,90765.78
2023-05-09T13:03:37.745Z,90763.28
2023-05-09T13:06:05.408Z,90775.22
2023-05-09T13:08:31.691Z,90768.47
2023-05-09T13:11:12.011Z,90768.88
2023-05-09T13:13:42.426Z,90767.59
2023-05-09T13:16:10.719Z,90767.94
2023-05-09T13:18:38.403Z,90777.66
2023-05-09T13:21:04.694Z,90773.34
2023-05-09T13:23:30.960Z,90766.78
2023-05-09T13:25:57.248Z,90772.78
2023-05-09T13:28:23.537Z,90765.97
2023-05-09T13:30:49.857Z,90761.59
2023-05-09T13:33:25.334Z,90752.41
2023-05-09T13:35:52.479Z,90762.91
2023-05-09T13:38:18.811Z,90757.94
2023-05-09T13:40:45.100Z,90755.91
2023-05-09T13:43:11.475Z,90762.31
2023-05-09T13:45:37.808Z,90758.84
2023-05-09T13:48:04.319Z,90751.16
2023-05-09T13:50:30.636Z,90753.00
2023-05-09T13:52:56.996Z,90743.31
2023-05-09T13:55:24.222Z,90751.09
2023-05-09T13:57:50.941Z,90752.66
2023-05-09T14:00:18.061Z,90750.28
2023-05-09T14:02:44.576Z,90751.41
2023-05-09T14:05:10.880Z,90749.97
2023-05-09T14:07:37.236Z,90754.53
2023-05-09T14:12:33.974Z,90747.41
2023-05-09T14:15:00.285Z,90750.88
2023-05-09T14:17:26.782Z,90747.84
2023-05-09T14:19:53.108Z,90749.81
2023-05-09T14:22:19.495Z,90751.28
2023-05-09T14:24:45.877Z,90757.25
2023-05-09T14:27:12.182Z,90759.25
2023-05-09T14:29:41.121Z,90752.78
2023-05-09T14:32:08.029Z,90758.91
2023-05-09T14:34:34.421Z,90748.22
2023-05-09T14:37:00.719Z,90755.16
2023-05-09T14:39:27.015Z,90753.38
2023-05-09T14:41:53.306Z,90756.31
2023-05-09T14:44:19.602Z,90750.69
2023-05-09T14:46:45.935Z,90748.34
2023-05-09T14:49:12.256Z,90746.66
2023-05-09T14:51:38.630Z,90739.91
2023-05-09T14:54:04.948Z,90747.34
2023-05-09T14:56:31.255Z,90743.97
2023-05-09T14:58:57.541Z,90746.53
2023-05-09T15:01:24.137Z,90754.66
2023-05-09T15:03:50.562Z,90750.16
2023-05-09T15:06:17.152Z,90754.94
2023-05-09T15:08:43.433Z,90753.56
2023-05-09T15:11:09.729Z,90761.66
2023-05-09T15:13:36.227Z,90755.53
2023-05-09T15:16:02.682Z,90760.00
2023-05-09T15:18:29.000Z,90764.44
2023-05-09T15:20:55.700Z,90769.13
2023-05-09T15:23:22.682Z,90769.13
2023-05-09T15:25:49.110Z,90775.31
2023-05-09T15:28:15.631Z,90781.34
2023-05-09T15:30:42.129Z,90769.28
2023-05-09T15:33:08.533Z,90775.28
2023-05-09T15:35:34.853Z,90776.84
2023-05-09T15:38:01.134Z,90779.44
2023-05-09T15:40:27.940Z,90782.28
2023-05-09T15:42:54.222Z,90781.00
2023-05-09T15:45:20.631Z,90790.59
2023-05-09T15:47:47.167Z,90775.41
2023-05-09T15:50:13.740Z,90791.38
2023-05-09T15:52:40.227Z,90783.25
2023-05-09T15:55:07.065Z,90784.34
2023-05-09T15:57:33.482Z,90784.06
2023-05-09T15:59:59.853Z,90781.19
2023-05-09T16:02:26.346Z,90783.59
2023-05-09T16:04:52.844Z,90772.38
2023-05-09T16:07:20.380Z,90780.72
2023-05-09T16:09:47.226Z,90783.78
2023-05-09T16:12:13.741Z,90781.88
2023-05-09T16:14:40.112Z,90787.44
2023-05-09T16:17:06.445Z,90781.88
2023-05-09T16:19:35.031Z,90777.41
2023-05-09T16:22:02.182Z,90776.97
2023-05-09T16:24:28.465Z,90797.53
2023-05-09T16:26:54.743Z,90786.66
2023-05-09T16:29:22.306Z,90785.59
2023-05-09T16:31:48.664Z,90784.78
2023-05-09T16:34:14.969Z,90790.75
2023-05-09T16:36:41.351Z,90789.09
2023-05-09T16:39:07.642Z,90789.63
2023-05-09T16:41:33.942Z,90791.47
2023-05-09T16:44:00.288Z,90791.66
2023-05-09T16:46:26.723Z,90798.34
2023-05-09T16:48:53.077Z,90792.81
2023-05-09T16:51:19.405Z,90798.75
2023-05-09T16:53:45.694Z,90805.88
2023-05-09T16:56:12.231Z,90794.88
2023-05-09T16:58:38.741Z,90798.69
2023-05-09T17:01:05.484Z,90802.47
2023-05-09T17:03:31.863Z,90792.69
2023-05-09T17:05:58.161Z,90799.00
2023-05-09T17:08:24.456Z,90797.19
2023-05-09T17:10:50.802Z,90804.81
2023-05-09T17:13:17.317Z,90796.00
2023-05-09T17:15:44.260Z,90792.75
2023-05-09T17:18:10.801Z,90795.16
2023-05-09T17:20:37.740Z,90791.06
2023-05-09T17:23:04.053Z,90798.09
2023-05-09T17:25:30.571Z,90796.63
2023-05-09T17:27:56.925Z,90799.63
2023-05-09T17:30:23.618Z,90798.25
2023-05-09T17:32:50.145Z,90797.16
2023-05-09T17:35:19.244Z,90799.69
2023-05-09T17:37:45.558Z,90796.69
2023-05-09T17:40:11.945Z,90807.28
2023-05-09T17:42:38.562Z,90804.91
2023-05-09T17:45:05.072Z,90806.41
2023-05-09T17:47:31.527Z,90806.22
2023-05-09T17:49:57.870Z,90805.53
2023-05-09T17:52:24.180Z,90803.31
2023-05-09T17:54:50.586Z,90810.13
2023-05-09T17:57:16.897Z,90815.84
2023-05-09T17:59:43.241Z,90813.97
2023-05-09T18:02:09.527Z,90812.91
2023-05-09T18:04:36.015Z,90817.63
2023-05-09T18:07:02.584Z,90821.47
2023-05-09T18:09:28.898Z,90824.06
2023-05-09T18:11:55.220Z,90826.00
2023-05-09T18:14:21.541Z,90818.06
2023-05-09T18:16:47.855Z,90819.88
2023-05-09T18:19:14.112Z,90822.88
2023-05-09T18:21:40.426Z,90824.06
2023-05-09T18:24:08.990Z,90822.69
2023-05-09T18:26:35.292Z,90831.34
2023-05-09T18:29:01.625Z,90830.59
2023-05-09T18:31:27.930Z,90836.47
2023-05-09T18:33:54.295Z,90836.69
2023-05-09T18:36:20.568Z,90844.66
2023-05-09T18:38:48.141Z,90855.34
2023-05-09T18:41:15.626Z,90850.00
2023-05-09T18:43:45.803Z,90846.97
2023-05-09T18:46:16.974Z,90846.44
2023-05-09T18:48:44.174Z,90858.66
2023-05-09T18:51:10.590Z,90856.31
2023-05-09T18:53:37.791Z,90851.50
2023-05-09T18:56:04.475Z,90859.41
2023-05-09T18:58:30.963Z,90863.00
2023-05-09T19:00:57.370Z,90863.56
2023-05-09T19:03:25.101Z,90862.16
2023-05-09T19:05:51.378Z,90864.63
2023-05-09T19:08:17.691Z,90871.25
2023-05-09T19:10:44.580Z,90871.41
2023-05-09T19:13:11.550Z,90879.50
2023-05-09T19:15:38.658Z,90882.88
2023-05-09T19:18:05.005Z,90882.91
2023-05-09T19:20:31.488Z,90880.56
2023-05-09T19:22:57.938Z,90880.84
2023-05-09T19:25:24.644Z,90879.41
2023-05-09T19:27:52.539Z,90880.91
2023-05-09T19:30:20.255Z,90876.69
2023-05-09T19:32:46.611Z,90880.53
2023-05-09T19:35:12.963Z,90889.06
2023-05-09T19:37:39.276Z,90881.91
2023-05-09T19:40:06.243Z,90886.59
2023-05-09T19:42:33.114Z,90886.16
2023-05-09T19:44:59.565Z,90894.59
2023-05-09T19:47:26.005Z,90891.66
2023-05-09T19:49:53.453Z,90894.75
2023-05-09T19:52:19.827Z,90886.41
2023-05-09T19:54:46.129Z,90887.69
2023-05-09T19:57:13.153Z,90891.25
2023-05-09T19:59:39.431Z,90894.84
2023-05-09T20:02:05.798Z,90893.44
2023-05-09T20:04:33.106Z,90891.53
2023-05-09T20:06:59.387Z,90886.44
2023-05-09T20:09:25.726Z,90895.28
2023-05-09T20:11:52.001Z,90895.34
2023-05-09T20:14:18.707Z,90893.13
2023-05-09T20:16:45.042Z,90894.06
2023-05-09T20:19:14.465Z,90895.41
2023-05-09T20:21:40.777Z,90897.66
2023-05-09T20:24:07.470Z,90888.38
2023-05-09T20:26:33.761Z,90882.66
2023-05-09T20:29:01.469Z,90877.28
2023-05-09T20:31:28.498Z,90880.09
2023-05-09T20:33:55.485Z,90883.44
2023-05-09T20:36:21.796Z,90878.81
2023-05-09T20:38:48.111Z,90876.88
2023-05-09T20:41:14.405Z,90877.78
2023-05-09T20:43:40.691Z,90881.47
2023-05-09T20:46:07.327Z,90874.44
2023-05-09T20:48:33.648Z,90875.00
2023-05-09T20:50:59.910Z,90881.00
2023-05-09T20:53:27.553Z,90872.78
2023-05-09T20:55:53.920Z,90885.44
2023-05-09T20:58:20.329Z,90875.19
2023-05-09T21:00:47.017Z,90876.75
2023-05-09T21:03:13.611Z,90874.09
2023-05-09T21:05:40.356Z,90877.78
2023-05-09T21:08:06.637Z,90876.91
2023-05-09T21:10:32.905Z,90874.00
2023-05-09T21:12:59.260Z,90864.81
2023-05-09T21:15:25.589Z,90869.47
2023-05-09T21:17:51.918Z,90872.38
2023-05-09T21:20:18.477Z,90871.38
2023-05-09T21:22:44.916Z,90861.91
2023-05-09T21:25:11.281Z,90869.91
2023-05-09T21:27:37.579Z,90870.25
2023-05-09T21:30:04.247Z,90869.44
2023-05-09T21:32:30.579Z,90870.59
2023-05-09T21:34:56.975Z,90871.09
2023-05-09T21:37:23.260Z,90873.06
2023-05-09T21:39:49.560Z,90871.31
2023-05-09T21:42:15.922Z,90868.28
2023-05-09T21:44:42.208Z,90875.69
2023-05-09T21:47:08.673Z,90875.91
2023-05-09T21:49:35.114Z,90873.38
2023-05-09T21:52:01.413Z,90882.09
2023-05-09T21:54:27.721Z,90880.72
2023-05-09T21:56:54.045Z,90875.38
2023-05-09T21:59:22.115Z,90874.44
2023-05-09T22:01:48.707Z,90880.44
2023-05-09T22:04:15.256Z,90886.00
2023-05-09T22:06:42.485Z,90889.56
2023-05-09T22:09:09.022Z,90889.31
2023-05-09T22:11:35.338Z,90884.78
2023-05-09T22:14:01.865Z,90896.09
2023-05-09T22:16:28.646Z,90890.84
2023-05-09T22:18:55.073Z,90891.13
2023-05-09T22:21:21.359Z,90889.84
2023-05-09T22:23:47.649Z,90894.03
2023-05-09T22:26:13.919Z,90899.94
2023-05-09T22:28:40.267Z,90898.44
2023-05-09T22:31:06.786Z,90897.06
2023-05-09T22:33:33.331Z,90891.34
2023-05-09T22:35:59.610Z,90889.81
2023-05-09T22:38:25.933Z,90892.75
2023-05-09T22:40:52.244Z,90894.44
2023-05-09T22:43:18.514Z,90888.78
2023-05-09T22:45:44.936Z,90897.09
2023-05-09T22:48:11.345Z,90882.41
2023-05-09T22:50:37.679Z,90885.63
2023-05-09T22:53:03.963Z,90884.03
2023-05-09T22:55:30.350Z,90884.53
2023-05-09T22:57:56.688Z,90887.19
2023-05-09T23:00:22.979Z,90886.81
2023-05-09T23:02:49.376Z,90882.19
2023-05-09T23:05:15.786Z,90882.19
2023-05-09T23:07:42.339Z,90887.66
2023-05-09T23:10:08.608Z,90889.03
2023-05-09T23:12:34.893Z,90879.88
2023-05-09T23:15:01.233Z,90884.53
2023-05-09T23:17:27.589Z,90876.72
2023-05-09T23:19:53.968Z,90881.66
2023-05-09T23:22:20.265Z,90877.00
2023-05-09T23:24:46.564Z,90880.56
2023-05-09T23:27:12.841Z,90886.84
2023-05-09T23:29:39.111Z,90871.41
2023-05-09T23:32:05.401Z,90874.34
2023-05-09T23:34:31.778Z,90871.09
2023-05-09T23:36:58.120Z,90883.59
2023-05-09T23:39:24.425Z,90876.50
2023-05-09T23:41:50.712Z,90868.09
2023-05-09T23:44:17.058Z,90868.03
2023-05-09T23:46:43.402Z,90869.44
2023-05-09T23:49:09.690Z,90870.59
2023-05-09T23:51:36.227Z,90881.88
2023-05-09T23:54:02.504Z,90881.06
2023-05-09T23:56:28.807Z,90877.13
2023-05-09T23:58:55.545Z,90868.50
